sensor_id;sensor_type;location;lat;lon;timestamp;pressure;altitude;pressure_sealevel;temperature;humidity
68380;BME280;57711;53.196;19.638;2023-11-18T00:00:35;100423.60;;;3.84;68.78
68380;BME280;57711;53.196;19.638;2023-11-18T00:03:21;100429.21;;;3.83;68.81
68380;BME280;57711;53.196;19.638;2023-11-18T00:05:48;100433.11;;;3.81;68.88
68380;BME280;57711;53.196;19.638;2023-11-18T00:08:14;100435.02;;;3.82;68.79
68380;BME280;57711;53.196;19.638;2023-11-18T00:10:41;100437.00;;;3.82;68.79
68380;BME280;57711;53.196;19.638;2023-11-18T00:13:07;100436.73;;;3.83;68.82
68380;BME280;57711;53.196;19.638;2023-11-18T00:15:34;100438.80;;;3.84;68.86
68380;BME280;57711;53.196;19.638;2023-11-18T00:18:02;100439.96;;;3.86;69.00
68380;BME280;57711;53.196;19.638;2023-11-18T00:20:28;100443.02;;;3.86;68.92
68380;BME280;57711;53.196;19.638;2023-11-18T00:22:57;100446.34;;;3.84;68.93
68380;BME280;57711;53.196;19.638;2023-11-18T00:25:23;100446.89;;;3.84;68.89
68380;BME280;57711;53.196;19.638;2023-11-18T00:27:50;100443.62;;;3.84;68.96
68380;BME280;57711;53.196;19.638;2023-11-18T00:30:16;100443.38;;;3.85;68.86
68380;BME280;57711;53.196;19.638;2023-11-18T00:32:43;100445.04;;;3.88;68.81
68380;BME280;57711;53.196;19.638;2023-11-18T00:35:09;100448.55;;;3.89;68.94
68380;BME280;57711;53.196;19.638;2023-11-18T00:37:36;100453.86;;;3.90;68.81
68380;BME280;57711;53.196;19.638;2023-11-18T00:40:03;100454.92;;;3.90;68.88
68380;BME280;57711;53.196;19.638;2023-11-18T00:42:30;100456.50;;;3.88;68.85
68380;BME280;57711;53.196;19.638;2023-11-18T00:44:56;100456.84;;;3.88;68.81
68380;BME280;57711;53.196;19.638;2023-11-18T00:47:23;100462.42;;;3.90;68.97
68380;BME280;57711;53.196;19.638;2023-11-18T00:49:50;100465.79;;;3.91;68.79
68380;BME280;57711;53.196;19.638;2023-11-18T00:52:18;100468.80;;;3.91;68.86
68380;BME280;57711;53.196;19.638;2023-11-18T00:54:46;100471.11;;;3.91;68.90
68380;BME280;57711;53.196;19.638;2023-11-18T00:57:12;100474.69;;;3.91;68.78
68380;BME280;57711;53.196;19.638;2023-11-18T00:59:43;100476.66;;;3.92;68.89
68380;BME280;57711;53.196;19.638;2023-11-18T01:02:10;100473.44;;;3.91;68.96
68380;BME280;57711;53.196;19.638;2023-11-18T01:04:37;100468.06;;;3.91;68.89
68380;BME280;57711;53.196;19.638;2023-11-18T01:07:03;100470.86;;;3.93;68.96
68380;BME280;57711;53.196;19.638;2023-11-18T01:09:29;100469.02;;;3.94;68.85
68380;BME280;57711;53.196;19.638;2023-11-18T01:12:02;100471.77;;;3.95;68.93
68380;BME280;57711;53.196;19.638;2023-11-18T01:14:39;100471.98;;;3.95;68.91
68380;BME280;57711;53.196;19.638;2023-11-18T01:17:06;100478.74;;;3.92;68.59
68380;BME280;57711;53.196;19.638;2023-11-18T01:19:33;100480.08;;;3.88;68.77
68380;BME280;57711;53.196;19.638;2023-11-18T01:22:02;100476.43;;;3.86;68.91
68380;BME280;57711;53.196;19.638;2023-11-18T01:24:32;100478.90;;;3.87;68.86
68380;BME280;57711;53.196;19.638;2023-11-18T01:26:59;100483.30;;;3.88;68.83
68380;BME280;57711;53.196;19.638;2023-11-18T01:29:26;100484.85;;;3.89;68.83
68380;BME280;57711;53.196;19.638;2023-11-18T01:31:53;100481.10;;;3.89;68.88
68380;BME280;57711;53.196;19.638;2023-11-18T01:34:21;100483.39;;;3.89;68.97
68380;BME280;57711;53.196;19.638;2023-11-18T01:36:49;100489.64;;;3.89;68.86
68380;BME280;57711;53.196;19.638;2023-11-18T01:39:18;100497.23;;;3.88;68.95
68380;BME280;57711;53.196;19.638;2023-11-18T01:41:45;100501.56;;;3.88;68.89
68380;BME280;57711;53.196;19.638;2023-11-18T01:44:12;100496.79;;;3.87;68.81
68380;BME280;57711;53.196;19.638;2023-11-18T01:46:42;100499.88;;;3.86;68.65
68380;BME280;57711;53.196;19.638;2023-11-18T01:49:13;100493.94;;;3.87;68.77
68380;BME280;57711;53.196;19.638;2023-11-18T01:51:44;100493.66;;;3.85;68.67
68380;BME280;57711;53.196;19.638;2023-11-18T01:54:13;100497.50;;;3.84;68.82
68380;BME280;57711;53.196;19.638;2023-11-18T01:56:48;100496.05;;;3.84;68.71
68380;BME280;57711;53.196;19.638;2023-11-18T01:59:16;100495.53;;;3.84;68.75
68380;BME280;57711;53.196;19.638;2023-11-18T02:01:51;100495.33;;;3.84;68.94
68380;BME280;57711;53.196;19.638;2023-11-18T02:04:20;100493.16;;;3.85;68.82
68380;BME280;57711;53.196;19.638;2023-11-18T02:06:48;100497.08;;;3.85;68.94
68380;BME280;57711;53.196;19.638;2023-11-18T02:09:16;100502.55;;;3.83;68.87
68380;BME280;57711;53.196;19.638;2023-11-18T02:11:53;100503.83;;;3.83;68.87
68380;BME280;57711;53.196;19.638;2023-11-18T02:14:20;100511.14;;;3.83;68.93
68380;BME280;57711;53.196;19.638;2023-11-18T02:16:53;100514.31;;;3.84;68.94
68380;BME280;57711;53.196;19.638;2023-11-18T02:19:24;100517.30;;;3.84;69.02
68380;BME280;57711;53.196;19.638;2023-11-18T02:21:52;100516.05;;;3.85;68.84
68380;BME280;57711;53.196;19.638;2023-11-18T02:24:31;100522.09;;;3.86;68.91
68380;BME280;57711;53.196;19.638;2023-11-18T02:27:00;100523.89;;;3.85;68.64
68380;BME280;57711;53.196;19.638;2023-11-18T02:29:31;100525.38;;;3.84;68.67
68380;BME280;57711;53.196;19.638;2023-11-18T02:32:15;100529.65;;;3.85;68.75
68380;BME280;57711;53.196;19.638;2023-11-18T02:34:51;100530.90;;;3.85;68.92
68380;BME280;57711;53.196;19.638;2023-11-18T02:37:20;100531.23;;;3.85;68.96
68380;BME280;57711;53.196;19.638;2023-11-18T02:39:51;100533.50;;;3.86;68.92
68380;BME280;57711;53.196;19.638;2023-11-18T02:42:19;100533.39;;;3.88;68.93
68380;BME280;57711;53.196;19.638;2023-11-18T02:44:48;100535.27;;;3.89;68.86
68380;BME280;57711;53.196;19.638;2023-11-18T02:47:15;100534.69;;;3.90;68.84
68380;BME280;57711;53.196;19.638;2023-11-18T02:49:42;100534.33;;;3.90;68.73
68380;BME280;57711;53.196;19.638;2023-11-18T02:52:08;100535.27;;;3.89;68.71
68380;BME280;57711;53.196;19.638;2023-11-18T02:54:36;100540.29;;;3.86;68.67
68380;BME280;57711;53.196;19.638;2023-11-18T02:57:02;100543.33;;;3.83;68.79
68380;BME280;57711;53.196;19.638;2023-11-18T02:59:28;100544.15;;;3.81;68.79
68380;BME280;57711;53.196;19.638;2023-11-18T03:01:58;100539.80;;;3.79;68.72
68380;BME280;57711;53.196;19.638;2023-11-18T03:04:28;100539.23;;;3.80;68.88
68380;BME280;57711;53.196;19.638;2023-11-18T03:06:54;100537.96;;;3.80;68.67
68380;BME280;57711;53.196;19.638;2023-11-18T03:09:21;100541.92;;;3.79;68.68
68380;BME280;57711;53.196;19.638;2023-11-18T03:11:47;100545.79;;;3.77;68.69
68380;BME280;57711;53.196;19.638;2023-11-18T03:14:14;100542.66;;;3.75;68.70
68380;BME280;57711;53.196;19.638;2023-11-18T03:16:40;100543.96;;;3.74;68.75
68380;BME280;57711;53.196;19.638;2023-11-18T03:19:07;100544.14;;;3.75;68.78
68380;BME280;57711;53.196;19.638;2023-11-18T03:21:34;100548.03;;;3.75;68.87
68380;BME280;57711;53.196;19.638;2023-11-18T03:24:01;100547.48;;;3.76;68.71
68380;BME280;57711;53.196;19.638;2023-11-18T03:26:27;100555.70;;;3.76;68.82
68380;BME280;57711;53.196;19.638;2023-11-18T03:28:54;100559.00;;;3.74;68.77
68380;BME280;57711;53.196;19.638;2023-11-18T03:31:20;100558.23;;;3.72;68.68
68380;BME280;57711;53.196;19.638;2023-11-18T03:33:46;100555.22;;;3.72;68.87
68380;BME280;57711;53.196;19.638;2023-11-18T03:36:13;100553.48;;;3.71;68.85
68380;BME280;57711;53.196;19.638;2023-11-18T03:38:39;100559.84;;;3.72;68.75
68380;BME280;57711;53.196;19.638;2023-11-18T03:41:06;100563.06;;;3.72;68.66
68380;BME280;57711;53.196;19.638;2023-11-18T03:43:34;100570.56;;;3.72;68.77
68380;BME280;57711;53.196;19.638;2023-11-18T03:46:00;100572.63;;;3.74;68.63
68380;BME280;57711;53.196;19.638;2023-11-18T03:48:27;100574.08;;;3.73;68.78
68380;BME280;57711;53.196;19.638;2023-11-18T03:50:53;100572.73;;;3.72;68.73
68380;BME280;57711;53.196;19.638;2023-11-18T03:53:20;100573.70;;;3.70;68.69
68380;BME280;57711;53.196;19.638;2023-11-18T03:55:46;100579.95;;;3.71;68.77
68380;BME280;57711;53.196;19.638;2023-11-18T03:58:12;100583.84;;;3.72;68.68
68380;BME280;57711;53.196;19.638;2023-11-18T04:00:38;100585.02;;;3.70;68.64
68380;BME280;57711;53.196;19.638;2023-11-18T04:03:05;100587.03;;;3.69;68.67
68380;BME280;57711;53.196;19.638;2023-11-18T04:05:33;100587.65;;;3.67;68.71
68380;BME280;57711;53.196;19.638;2023-11-18T04:08:01;100589.71;;;3.65;68.77
68380;BME280;57711;53.196;19.638;2023-11-18T04:10:27;100588.68;;;3.65;68.78
68380;BME280;57711;53.196;19.638;2023-11-18T04:12:54;100592.76;;;3.65;68.82
68380;BME280;57711;53.196;19.638;2023-11-18T04:15:20;100589.13;;;3.67;68.79
68380;BME280;57711;53.196;19.638;2023-11-18T04:17:46;100588.11;;;3.69;68.81
68380;BME280;57711;53.196;19.638;2023-11-18T04:20:13;100593.80;;;3.73;68.79
68380;BME280;57711;53.196;19.638;2023-11-18T04:22:42;100593.59;;;3.73;68.76
68380;BME280;57711;53.196;19.638;2023-11-18T04:25:10;100592.20;;;3.73;68.90
68380;BME280;57711;53.196;19.638;2023-11-18T04:27:37;100595.65;;;3.71;68.82
68380;BME280;57711;53.196;19.638;2023-11-18T04:30:04;100596.13;;;3.69;68.78
68380;BME280;57711;53.196;19.638;2023-11-18T04:32:31;100602.77;;;3.69;68.73
68380;BME280;57711;53.196;19.638;2023-11-18T04:34:59;100604.14;;;3.70;68.80
68380;BME280;57711;53.196;19.638;2023-11-18T04:37:26;100611.92;;;3.72;68.64
68380;BME280;57711;53.196;19.638;2023-11-18T04:39:52;100614.95;;;3.72;68.76
68380;BME280;57711;53.196;19.638;2023-11-18T04:42:21;100621.38;;;3.72;68.71
68380;BME280;57711;53.196;19.638;2023-11-18T04:44:47;100624.27;;;3.71;68.61
68380;BME280;57711;53.196;19.638;2023-11-18T04:47:14;100624.94;;;3.69;68.76
68380;BME280;57711;53.196;19.638;2023-11-18T04:49:40;100627.56;;;3.67;68.68
68380;BME280;57711;53.196;19.638;2023-11-18T04:52:06;100627.70;;;3.67;68.76
68380;BME280;57711;53.196;19.638;2023-11-18T04:54:33;100632.48;;;3.69;68.77
68380;BME280;57711;53.196;19.638;2023-11-18T04:57:00;100634.38;;;3.66;68.65
68380;BME280;57711;53.196;19.638;2023-11-18T04:59:26;100634.11;;;3.65;68.64
68380;BME280;57711;53.196;19.638;2023-11-18T05:01:53;100636.59;;;3.65;68.65
68380;BME280;57711;53.196;19.638;2023-11-18T05:04:19;100640.92;;;3.65;68.75
68380;BME280;57711;53.196;19.638;2023-11-18T05:06:46;100638.28;;;3.64;68.68
68380;BME280;57711;53.196;19.638;2023-11-18T05:09:12;100641.83;;;3.64;68.76
68380;BME280;57711;53.196;19.638;2023-11-18T05:11:38;100640.70;;;3.65;68.76
68380;BME280;57711;53.196;19.638;2023-11-18T05:14:05;100644.30;;;3.65;68.63
68380;BME280;57711;53.196;19.638;2023-11-18T05:16:33;100647.30;;;3.65;68.64
68380;BME280;57711;53.196;19.638;2023-11-18T05:18:59;100647.69;;;3.65;68.70
68380;BME280;57711;53.196;19.638;2023-11-18T05:21:26;100654.76;;;3.64;68.58
68380;BME280;57711;53.196;19.638;2023-11-18T05:23:52;100659.50;;;3.62;68.78
68380;BME280;57711;53.196;19.638;2023-11-18T05:26:19;100666.41;;;3.59;68.60
68380;BME280;57711;53.196;19.638;2023-11-18T05:28:45;100666.37;;;3.56;68.44
68380;BME280;57711;53.196;19.638;2023-11-18T05:31:12;100672.83;;;3.53;68.51
68380;BME280;57711;53.196;19.638;2023-11-18T05:33:38;100675.52;;;3.49;68.57
68380;BME280;57711;53.196;19.638;2023-11-18T05:36:05;100685.27;;;3.45;68.53
68380;BME280;57711;53.196;19.638;2023-11-18T05:38:32;100691.30;;;3.38;68.44
68380;BME280;57711;53.196;19.638;2023-11-18T05:41:01;100698.48;;;3.34;68.62
68380;BME280;57711;53.196;19.638;2023-11-18T05:43:31;100701.23;;;3.36;68.67
68380;BME280;57711;53.196;19.638;2023-11-18T05:46:07;100703.02;;;3.39;68.66
68380;BME280;57711;53.196;19.638;2023-11-18T05:48:51;100703.51;;;3.41;68.62
68380;BME280;57711;53.196;19.638;2023-11-18T05:51:24;100704.42;;;3.40;68.66
68380;BME280;57711;53.196;19.638;2023-11-18T05:53:51;100705.88;;;3.39;68.66
68380;BME280;57711;53.196;19.638;2023-11-18T05:56:19;100707.11;;;3.40;68.65
68380;BME280;57711;53.196;19.638;2023-11-18T05:58:45;100713.53;;;3.40;68.73
68380;BME280;57711;53.196;19.638;2023-11-18T06:01:12;100716.55;;;3.41;68.57
68380;BME280;57711;53.196;19.638;2023-11-18T06:03:39;100718.77;;;3.43;68.56
68380;BME280;57711;53.196;19.638;2023-11-18T06:06:07;100726.66;;;3.42;68.58
68380;BME280;57711;53.196;19.638;2023-11-18T06:08:35;100729.98;;;3.40;68.63
68380;BME280;57711;53.196;19.638;2023-11-18T06:11:01;100732.05;;;3.42;68.68
68380;BME280;57711;53.196;19.638;2023-11-18T06:13:43;100732.55;;;3.43;68.62
68380;BME280;57711;53.196;19.638;2023-11-18T06:16:13;100728.88;;;3.41;68.66
68380;BME280;57711;53.196;19.638;2023-11-18T06:18:45;100729.35;;;3.42;68.63
68380;BME280;57711;53.196;19.638;2023-11-18T06:21:19;100729.50;;;3.43;68.57
68380;BME280;57711;53.196;19.638;2023-11-18T06:23:47;100735.80;;;3.46;68.60
68380;BME280;57711;53.196;19.638;2023-11-18T06:26:14;100741.98;;;3.47;68.72
68380;BME280;57711;53.196;19.638;2023-11-18T06:28:42;100744.41;;;3.48;68.70
68380;BME280;57711;53.196;19.638;2023-11-18T06:31:09;100747.29;;;3.48;68.54
68380;BME280;57711;53.196;19.638;2023-11-18T06:33:44;100754.52;;;3.47;68.52
68380;BME280;57711;53.196;19.638;2023-11-18T06:38:41;100757.56;;;3.43;68.64
68380;BME280;57711;53.196;19.638;2023-11-18T06:41:07;100757.55;;;3.43;68.71
68380;BME280;57711;53.196;19.638;2023-11-18T06:43:44;100755.33;;;3.45;68.54
68380;BME280;57711;53.196;19.638;2023-11-18T06:48:48;100767.13;;;3.48;68.73
68380;BME280;57711;53.196;19.638;2023-11-18T06:51:16;100775.02;;;3.48;68.56
68380;BME280;57711;53.196;19.638;2023-11-18T06:53:42;100785.64;;;3.46;68.57
68380;BME280;57711;53.196;19.638;2023-11-18T06:56:10;100792.68;;;3.45;68.66
68380;BME280;57711;53.196;19.638;2023-11-18T06:58:38;100791.33;;;3.44;68.53
68380;BME280;57711;53.196;19.638;2023-11-18T07:01:05;100797.19;;;3.44;68.52
68380;BME280;57711;53.196;19.638;2023-11-18T07:03:32;100798.61;;;3.48;68.71
68380;BME280;57711;53.196;19.638;2023-11-18T07:05:59;100795.95;;;3.50;68.58
68380;BME280;57711;53.196;19.638;2023-11-18T07:08:25;100795.05;;;3.51;68.67
68380;BME280;57711;53.196;19.638;2023-11-18T07:10:51;100794.48;;;3.51;68.62
68380;BME280;57711;53.196;19.638;2023-11-18T07:13:18;100799.15;;;3.51;68.68
68380;BME280;57711;53.196;19.638;2023-11-18T07:15:44;100803.02;;;3.49;68.57
68380;BME280;57711;53.196;19.638;2023-11-18T07:18:11;100804.08;;;3.49;68.73
68380;BME280;57711;53.196;19.638;2023-11-18T07:20:38;100808.08;;;3.51;68.68
68380;BME280;57711;53.196;19.638;2023-11-18T07:23:05;100815.84;;;3.53;68.64
68380;BME280;57711;53.196;19.638;2023-11-18T07:25:32;100816.40;;;3.53;68.63
68380;BME280;57711;53.196;19.638;2023-11-18T07:28:00;100817.31;;;3.52;68.52
68380;BME280;57711;53.196;19.638;2023-11-18T07:30:26;100823.16;;;3.53;68.70
68380;BME280;57711;53.196;19.638;2023-11-18T07:32:53;100829.64;;;3.53;68.74
68380;BME280;57711;53.196;19.638;2023-11-18T07:35:19;100838.73;;;3.50;68.72
68380;BME280;57711;53.196;19.638;2023-11-18T07:37:46;100836.61;;;3.49;68.58
68380;BME280;57711;53.196;19.638;2023-11-18T07:40:12;100837.80;;;3.50;68.58
68380;BME280;57711;53.196;19.638;2023-11-18T07:42:39;100831.58;;;3.50;68.42
68380;BME280;57711;53.196;19.638;2023-11-18T07:45:06;100831.83;;;3.49;68.60
68380;BME280;57711;53.196;19.638;2023-11-18T07:47:44;100829.41;;;3.47;68.57
68380;BME280;57711;53.196;19.638;2023-11-18T07:50:10;100828.45;;;3.41;68.51
68380;BME280;57711;53.196;19.638;2023-11-18T07:52:40;100830.89;;;3.38;68.64
68380;BME280;57711;53.196;19.638;2023-11-18T07:55:07;100830.39;;;3.38;68.64
68380;BME280;57711;53.196;19.638;2023-11-18T07:57:36;100832.31;;;3.38;68.70
68380;BME280;57711;53.196;19.638;2023-11-18T08:00:03;100828.63;;;3.37;68.47
68380;BME280;57711;53.196;19.638;2023-11-18T08:02:41;100831.30;;;3.37;68.54
68380;BME280;57711;53.196;19.638;2023-11-18T08:05:07;100838.20;;;3.35;68.47
68380;BME280;57711;53.196;19.638;2023-11-18T08:07:35;100839.02;;;3.33;68.68
68380;BME280;57711;53.196;19.638;2023-11-18T08:10:02;100839.73;;;3.30;68.57
68380;BME280;57711;53.196;19.638;2023-11-18T08:12:32;100842.15;;;3.24;68.34
68380;BME280;57711;53.196;19.638;2023-11-18T08:15:00;100842.06;;;3.19;68.46
68380;BME280;57711;53.196;19.638;2023-11-18T08:17:26;100843.58;;;3.20;68.68
68380;BME280;57711;53.196;19.638;2023-11-18T08:19:53;100842.30;;;3.21;68.62
68380;BME280;57711;53.196;19.638;2023-11-18T08:22:19;100843.46;;;3.23;68.63
68380;BME280;57711;53.196;19.638;2023-11-18T08:24:49;100844.90;;;3.27;68.57
68380;BME280;57711;53.196;19.638;2023-11-18T08:27:16;100843.50;;;3.29;68.80
68380;BME280;57711;53.196;19.638;2023-11-18T08:29:42;100842.98;;;3.32;68.70
68380;BME280;57711;53.196;19.638;2023-11-18T08:32:09;100843.56;;;3.32;68.57
68380;BME280;57711;53.196;19.638;2023-11-18T08:34:35;100843.55;;;3.28;68.62
68380;BME280;57711;53.196;19.638;2023-11-18T08:37:04;100846.89;;;3.29;68.68
68380;BME280;57711;53.196;19.638;2023-11-18T08:39:30;100848.66;;;3.33;68.65
68380;BME280;57711;53.196;19.638;2023-11-18T08:41:56;100852.00;;;3.38;68.74
68380;BME280;57711;53.196;19.638;2023-11-18T08:44:23;100850.74;;;3.42;68.74
68380;BME280;57711;53.196;19.638;2023-11-18T08:46:52;100848.55;;;3.43;68.73
68380;BME280;57711;53.196;19.638;2023-11-18T08:49:19;100851.48;;;3.45;68.68
68380;BME280;57711;53.196;19.638;2023-11-18T08:51:48;100855.00;;;3.47;68.74
68380;BME280;57711;53.196;19.638;2023-11-18T08:54:15;100860.05;;;3.49;68.80
68380;BME280;57711;53.196;19.638;2023-11-18T08:57:00;100864.05;;;3.51;68.78
68380;BME280;57711;53.196;19.638;2023-11-18T08:59:29;100867.30;;;3.54;68.81
68380;BME280;57711;53.196;19.638;2023-11-18T09:01:56;100863.91;;;3.57;68.71
68380;BME280;57711;53.196;19.638;2023-11-18T09:04:25;100863.23;;;3.60;68.79
68380;BME280;57711;53.196;19.638;2023-11-18T09:06:52;100858.98;;;3.63;68.86
68380;BME280;57711;53.196;19.638;2023-11-18T09:09:20;100862.60;;;3.65;68.73
68380;BME280;57711;53.196;19.638;2023-11-18T09:11:57;100859.94;;;3.65;68.78
68380;BME280;57711;53.196;19.638;2023-11-18T09:14:26;100864.80;;;3.68;68.90
68380;BME280;57711;53.196;19.638;2023-11-18T09:16:53;100867.09;;;3.72;68.74
68380;BME280;57711;53.196;19.638;2023-11-18T09:19:25;100867.92;;;3.76;68.87
68380;BME280;57711;53.196;19.638;2023-11-18T09:21:52;100866.77;;;3.82;68.83
68380;BME280;57711;53.196;19.638;2023-11-18T09:24:18;100865.81;;;3.87;68.87
68380;BME280;57711;53.196;19.638;2023-11-18T09:26:50;100866.95;;;3.89;68.74
68380;BME280;57711;53.196;19.638;2023-11-18T09:29:17;100864.66;;;3.88;68.79
68380;BME280;57711;53.196;19.638;2023-11-18T09:31:50;100866.41;;;3.85;68.74
68380;BME280;57711;53.196;19.638;2023-11-18T09:34:19;100870.25;;;3.81;68.60
68380;BME280;57711;53.196;19.638;2023-11-18T09:36:55;100874.52;;;3.77;68.62
68380;BME280;57711;53.196;19.638;2023-11-18T09:39:22;100873.00;;;3.79;68.80
68380;BME280;57711;53.196;19.638;2023-11-18T09:42:05;100874.95;;;3.83;68.75
68380;BME280;57711;53.196;19.638;2023-11-18T09:44:36;100875.27;;;3.87;68.76
68380;BME280;57711;53.196;19.638;2023-11-18T09:47:07;100873.69;;;3.90;68.83
68380;BME280;57711;53.196;19.638;2023-11-18T09:49:43;100875.66;;;3.90;68.76
68380;BME280;57711;53.196;19.638;2023-11-18T09:52:17;100880.23;;;3.92;68.84
68380;BME280;57711;53.196;19.638;2023-11-18T09:55:03;100887.96;;;3.94;68.73
68380;BME280;57711;53.196;19.638;2023-11-18T09:57:39;100898.02;;;3.94;68.79
68380;BME280;57711;53.196;19.638;2023-11-18T10:00:08;100897.66;;;3.97;68.79
68380;BME280;57711;53.196;19.638;2023-11-18T10:02:53;100892.27;;;3.97;68.80
68380;BME280;57711;53.196;19.638;2023-11-18T10:05:23;100891.36;;;3.98;68.69
68380;BME280;57711;53.196;19.638;2023-11-18T10:07:53;100891.69;;;3.99;68.67
68380;BME280;57711;53.196;19.638;2023-11-18T10:10:20;100898.11;;;3.95;68.69
68380;BME280;57711;53.196;19.638;2023-11-18T10:12:51;100901.55;;;3.95;68.68
68380;BME280;57711;53.196;19.638;2023-11-18T10:15:24;100902.48;;;3.98;68.68
68380;BME280;57711;53.196;19.638;2023-11-18T10:17:52;100900.10;;;3.99;68.68
68380;BME280;57711;53.196;19.638;2023-11-18T10:20:44;100895.95;;;3.99;68.56
68380;BME280;57711;53.196;19.638;2023-11-18T10:23:13;100889.48;;;4.00;68.59
68380;BME280;57711;53.196;19.638;2023-11-18T10:25:49;100892.05;;;3.98;68.68
68380;BME280;57711;53.196;19.638;2023-11-18T10:30:56;100895.80;;;4.02;68.73
68380;BME280;57711;53.196;19.638;2023-11-18T10:33:41;100901.05;;;4.04;68.81
68380;BME280;57711;53.196;19.638;2023-11-18T10:36:22;100905.84;;;4.08;68.70
68380;BME280;57711;53.196;19.638;2023-11-18T10:38:50;100911.02;;;4.09;68.62
68380;BME280;57711;53.196;19.638;2023-11-18T10:41:20;100909.35;;;4.10;68.49
68380;BME280;57711;53.196;19.638;2023-11-18T10:43:47;100909.83;;;4.08;68.55
68380;BME280;57711;53.196;19.638;2023-11-18T10:46:16;100912.48;;;4.05;68.50
68380;BME280;57711;53.196;19.638;2023-11-18T10:48:45;100910.61;;;3.99;68.61
68380;BME280;57711;53.196;19.638;2023-11-18T10:51:18;100914.34;;;3.96;68.55
68380;BME280;57711;53.196;19.638;2023-11-18T10:53:53;100917.94;;;3.89;68.38
68380;BME280;57711;53.196;19.638;2023-11-18T10:56:20;100920.00;;;3.84;68.28
68380;BME280;57711;53.196;19.638;2023-11-18T10:58:53;100920.42;;;3.82;68.42
68380;BME280;57711;53.196;19.638;2023-11-18T11:01:38;100925.05;;;3.83;68.24
68380;BME280;57711;53.196;19.638;2023-11-18T11:04:09;100934.21;;;3.82;68.47
68380;BME280;57711;53.196;19.638;2023-11-18T11:06:46;100937.42;;;3.82;68.52
68380;BME280;57711;53.196;19.638;2023-11-18T11:09:22;100932.84;;;3.81;68.44
68380;BME280;57711;53.196;19.638;2023-11-18T11:11:57;100930.52;;;3.81;68.43
68380;BME280;57711;53.196;19.638;2023-11-18T11:14:34;100934.86;;;3.84;68.63
68380;BME280;57711;53.196;19.638;2023-11-18T11:17:08;100935.70;;;3.88;68.43
68380;BME280;57711;53.196;19.638;2023-11-18T11:19:50;100940.10;;;3.93;68.52
68380;BME280;57711;53.196;19.638;2023-11-18T11:22:24;100943.25;;;3.98;68.42
68380;BME280;57711;53.196;19.638;2023-11-18T11:25:21;100945.21;;;4.01;68.53
68380;BME280;57711;53.196;19.638;2023-11-18T11:28:02;100949.66;;;4.05;68.45
68380;BME280;57711;53.196;19.638;2023-11-18T11:30:49;100955.86;;;4.10;68.57
68380;BME280;57711;53.196;19.638;2023-11-18T11:33:30;100958.83;;;4.15;68.74
68380;BME280;57711;53.196;19.638;2023-11-18T11:36:17;100963.36;;;4.21;68.60
68380;BME280;57711;53.196;19.638;2023-11-18T11:38:52;100967.13;;;4.28;68.55
68380;BME280;57711;53.196;19.638;2023-11-18T11:41:19;100967.18;;;4.34;68.33
68380;BME280;57711;53.196;19.638;2023-11-18T11:43:53;100962.58;;;4.33;68.25
68380;BME280;57711;53.196;19.638;2023-11-18T11:46:25;100954.83;;;4.41;68.55
68380;BME280;57711;53.196;19.638;2023-11-18T11:49:02;100961.14;;;4.50;68.58
68380;BME280;57711;53.196;19.638;2023-11-18T11:54:24;100968.44;;;4.71;68.79
68380;BME280;57711;53.196;19.638;2023-11-18T11:56:58;100969.73;;;4.84;68.72
68380;BME280;57711;53.196;19.638;2023-11-18T11:59:35;100968.60;;;4.95;68.62
68380;BME280;57711;53.196;19.638;2023-11-18T12:02:03;100972.34;;;5.05;68.41
68380;BME280;57711;53.196;19.638;2023-11-18T12:04:35;100967.95;;;5.14;68.61
68380;BME280;57711;53.196;19.638;2023-11-18T12:07:08;100969.80;;;5.22;68.48
68380;BME280;57711;53.196;19.638;2023-11-18T12:09:49;100974.23;;;5.29;68.36
68380;BME280;57711;53.196;19.638;2023-11-18T12:12:21;100979.81;;;5.32;68.35
68380;BME280;57711;53.196;19.638;2023-11-18T12:14:57;100975.58;;;5.41;68.63
68380;BME280;57711;53.196;19.638;2023-11-18T12:17:26;100976.16;;;5.49;68.68
68380;BME280;57711;53.196;19.638;2023-11-18T12:19:58;100974.05;;;5.55;68.45
68380;BME280;57711;53.196;19.638;2023-11-18T12:23:05;100975.19;;;5.60;68.37
68380;BME280;57711;53.196;19.638;2023-11-18T12:25:44;100979.85;;;5.63;68.05
68380;BME280;57711;53.196;19.638;2023-11-18T12:28:26;100978.14;;;5.59;67.98
68380;BME280;57711;53.196;19.638;2023-11-18T12:30:54;100979.27;;;5.58;68.04
68380;BME280;57711;53.196;19.638;2023-11-18T12:33:24;100982.45;;;5.53;67.96
68380;BME280;57711;53.196;19.638;2023-11-18T12:41:39;100985.72;;;5.29;67.85
68380;BME280;57711;53.196;19.638;2023-11-18T12:46:51;100983.54;;;5.01;67.73
68380;BME280;57711;53.196;19.638;2023-11-18T12:49:23;100980.92;;;4.89;67.81
68380;BME280;57711;53.196;19.638;2023-11-18T12:51:56;100984.60;;;4.81;67.51
68380;BME280;57711;53.196;19.638;2023-11-18T12:54:23;100990.67;;;4.74;67.57
68380;BME280;57711;53.196;19.638;2023-11-18T12:56:55;100989.73;;;4.71;67.54
68380;BME280;57711;53.196;19.638;2023-11-18T12:59:21;100989.38;;;4.72;67.61
68380;BME280;57711;53.196;19.638;2023-11-18T13:01:50;100990.70;;;4.74;67.69
68380;BME280;57711;53.196;19.638;2023-11-18T13:04:28;100995.53;;;4.74;67.63
68380;BME280;57711;53.196;19.638;2023-11-18T13:06:55;101000.05;;;4.73;67.65
68380;BME280;57711;53.196;19.638;2023-11-18T13:09:22;101005.04;;;4.74;67.74
68380;BME280;57711;53.196;19.638;2023-11-18T13:14:23;101010.30;;;4.72;67.64
68380;BME280;57711;53.196;19.638;2023-11-18T13:16:52;101010.88;;;4.71;67.61
68380;BME280;57711;53.196;19.638;2023-11-18T13:19:29;101009.69;;;4.70;67.44
68380;BME280;57711;53.196;19.638;2023-11-18T13:21:59;101012.66;;;4.68;67.53
68380;BME280;57711;53.196;19.638;2023-11-18T13:24:26;101007.75;;;4.63;67.43